Time,TemperatureF,DewpointF,PressureIn,WindDirection,WindDirectionDegrees,WindSpeedMPH,WindSpeedGustMPH,Humidity,HourlyPrecipIn,Conditions,Clouds,dailyrainin,SoftwareType,DateUTC
2013-06-14 00:04:00,49.0,49.0,29.59,SW,225,1.0,2.0,99,0.00,,,0.00,TxWx,2013-06-14 04:04:00,
2013-06-14 00:09:00,49.0,49.0,29.59,SW,225,1.0,1.0,99,0.00,,,0.00,TxWx,2013-06-14 04:09:00,
2013-06-14 00:14:00,49.0,49.0,29.59,SSW,202,0.0,1.0,99,0.00,,,0.00,TxWx,2013-06-14 04:14:00,
2013-06-14 00:19:00,49.0,49.0,29.59,SSW,202,0.0,0.0,99,0.00,,,0.00,TxWx,2013-06-14 04:19:00,
2013-06-14 00:25:00,49.0,49.0,29.59,South,180,0.0,1.0,99,0.00,,,0.00,TxWx,2013-06-14 04:25:00,
2013-06-14 00:30:00,49.0,49.0,29.59,SSW,202,1.0,1.0,99,0.00,,,0.00,TxWx,2013-06-14 04:30:00,
2013-06-14 00:35:00,49.0,49.0,29.59,South,180,0.0,0.0,99,0.00,,,0.00,TxWx,2013-06-14 04:35:00,
2013-06-14 00:40:00,49.0,49.0,29.59,WSW,247,1.0,2.0,99,0.00,,,0.00,TxWx,2013-06-14 04:40:00,
2013-06-14 00:45:00,49.0,49.0,29.59,SSW,202,1.0,2.0,99,0.00,,,0.00,TxWx,2013-06-14 04:45:00,
2013-06-14 00:50:00,49.0,49.0,29.59,West,270,2.0,2.0,99,0.00,,,0.00,TxWx,2013-06-14 04:50:00,
2013-06-14 00:55:00,49.0,49.0,29.59,SW,225,1.0,2.0,99,0.00,,,0.00,TxWx,2013-06-14 04:55:00,
2013-06-14 01:00:00,49.0,49.0,29.59,WSW,247,1.0,1.0,99,0.00,,,0.00,TxWx,2013-06-14 05:00:00,
2013-06-14 01:05:00,49.0,49.0,29.58,WSW,247,1.0,1.0,100,0.00,,,0.00,TxWx,2013-06-14 05:05:00,
2013-06-14 01:10:00,49.0,49.0,29.58,West,270,3.0,3.0,100,0.00,,,0.00,TxWx,2013-06-14 05:10:00,
2013-06-14 01:15:00,49.0,49.0,29.58,WSW,247,2.0,2.0,100,0.00,,,0.00,TxWx,2013-06-14 05:15:00,
2013-06-14 01:21:00,49.0,49.0,29.58,West,270,2.0,2.0,100,0.00,,,0.00,TxWx,2013-06-14 05:21:00,
2013-06-14 01:26:00,50.0,50.0,29.57,WNW,292,3.0,3.0,100,0.00,,,0.00,TxWx,2013-06-14 05:26:00,
2013-06-14 01:31:00,50.0,50.0,29.57,WNW,292,4.0,5.0,100,0.00,,,0.00,TxWx,2013-06-14 05:31:00,
2013-06-14 01:36:00,50.0,50.0,29.57,WNW,292,3.0,4.0,100,0.00,,,0.00,TxWx,2013-06-14 05:36:00,
2013-06-14 01:41:00,50.0,50.0,29.57,SW,225,1.0,2.0,100,0.00,,,0.00,TxWx,2013-06-14 05:41:00,
2013-06-14 01:46:00,50.0,50.0,29.57,West,270,4.0,4.0,100,0.00,,,0.00,TxWx,2013-06-14 05:46:00,
2013-06-14 01:51:00,50.0,50.0,29.57,West,270,4.0,5.0,100,0.00,,,0.00,TxWx,2013-06-14 05:51:00,
2013-06-14 01:56:00,50.0,50.0,29.57,WSW,247,2.0,3.0,100,0.00,,,0.00,TxWx,2013-06-14 05:56:00,
2013-06-14 02:01:00,50.0,50.0,29.57,SSW,202,1.0,1.0,100,0.00,,,0.00,TxWx,2013-06-14 06:01:00,
2013-06-14 02:06:00,50.0,50.0,29.57,SW,225,2.0,3.0,100,0.00,,,0.00,TxWx,2013-06-14 06:06:00,
2013-06-14 02:12:00,50.0,50.0,29.57,SW,225,2.0,2.0,100,0.00,,,0.00,TxWx,2013-06-14 06:12:00,
2013-06-14 02:17:00,50.0,50.0,29.57,WSW,247,1.0,1.0,100,0.00,,,0.00,TxWx,2013-06-14 06:17:00,
2013-06-14 02:25:00,50.0,50.0,29.57,SSW,202,3.0,3.0,100,0.00,,,0.00,TxWx,2013-06-14 06:25:00,
2013-06-14 02:30:00,50.0,50.0,29.57,West,270,3.0,3.0,100,0.00,,,0.00,TxWx,2013-06-14 06:30:00,
2013-06-14 02:35:00,50.0,50.0,29.57,SW,225,2.0,2.0,100,0.00,,,0.00,TxWx,2013-06-14 06:35:00,
2013-06-14 02:40:00,50.0,50.0,29.57,West,270,3.0,3.0,100,0.00,,,0.00,TxWx,2013-06-14 06:40:00,
2013-06-14 02:45:00,50.0,50.0,29.57,South,180,3.0,3.0,100,0.00,,,0.00,TxWx,2013-06-14 06:45:00,
2013-06-14 02:50:00,50.0,50.0,29.57,SSW,202,2.0,2.0,100,0.00,,,0.00,TxWx,2013-06-14 06:50:00,
2013-06-14 02:55:00,50.0,50.0,29.57,West,270,5.0,5.0,100,0.00,,,0.00,TxWx,2013-06-14 06:55:00,
2013-06-14 03:00:00,50.0,50.0,29.57,WSW,247,4.0,5.0,100,0.00,,,0.00,TxWx,2013-06-14 07:00:00,
2013-06-14 03:05:00,50.0,50.0,29.57,WNW,292,3.0,4.0,100,0.00,,,0.00,TxWx,2013-06-14 07:05:00,
2013-06-14 03:10:00,50.0,50.0,29.57,WSW,247,3.0,3.0,100,0.00,,,0.00,TxWx,2013-06-14 07:10:00,
2013-06-14 03:16:00,50.0,50.0,29.57,WSW,247,3.0,5.0,100,0.00,,,0.00,TxWx,2013-06-14 07:16:00,
2013-06-14 03:21:00,50.0,50.0,29.57,WSW,247,3.0,3.0,100,0.00,,,0.00,TxWx,2013-06-14 07:21:00,
2013-06-14 03:26:00,50.0,50.0,29.57,SSW,202,1.0,1.0,100,0.00,,,0.00,TxWx,2013-06-14 07:26:00,
2013-06-14 03:31:00,49.0,49.0,29.58,SW,225,3.0,3.0,100,0.00,,,0.00,TxWx,2013-06-14 07:31:00,
2013-06-14 03:36:00,49.0,49.0,29.57,SSW,202,1.0,2.0,100,0.00,,,0.00,TxWx,2013-06-14 07:36:00,
2013-06-14 03:41:00,49.0,49.0,29.57,WNW,292,2.0,3.0,100,0.00,,,0.00,TxWx,2013-06-14 07:41:00,
2013-06-14 03:46:00,49.0,49.0,29.58,WNW,292,4.0,5.0,100,0.00,,,0.00,TxWx,2013-06-14 07:46:00,
2013-06-14 03:51:00,49.0,49.0,29.58,WSW,247,5.0,6.0,100,0.00,,,0.00,TxWx,2013-06-14 07:51:00,
2013-06-14 03:56:00,49.0,49.0,29.58,WSW,247,5.0,6.0,100,0.00,,,0.00,TxWx,2013-06-14 07:56:00,
2013-06-14 04:01:00,49.0,49.0,29.58,WSW,247,3.0,6.0,100,0.00,,,0.00,TxWx,2013-06-14 08:01:00,
2013-06-14 04:07:00,49.0,49.0,29.58,WSW,247,5.0,5.0,100,0.00,,,0.00,TxWx,2013-06-14 08:07:00,
2013-06-14 04:12:00,49.0,49.0,29.58,WSW,247,3.0,3.0,100,0.00,,,0.00,TxWx,2013-06-14 08:12:00,
2013-06-14 04:17:00,49.0,49.0,29.59,SSW,202,1.0,1.0,100,0.00,,,0.00,TxWx,2013-06-14 08:17:00,
2013-06-14 04:22:00,49.0,49.0,29.58,SW,225,1.0,2.0,100,0.00,,,0.00,TxWx,2013-06-14 08:22:00,
2013-06-14 04:27:00,49.0,49.0,29.59,WSW,247,1.0,1.0,100,0.00,,,0.00,TxWx,2013-06-14 08:27:00,
2013-06-14 04:32:00,49.0,49.0,29.59,SSW,202,0.0,0.0,100,0.00,,,0.00,TxWx,2013-06-14 08:32:00,
2013-06-14 04:37:00,48.0,48.0,29.59,SSW,202,0.0,0.0,100,0.00,,,0.00,TxWx,2013-06-14 08:37:00,
2013-06-14 04:42:00,48.0,48.0,29.59,WSW,247,3.0,3.0,100,0.00,,,0.00,TxWx,2013-06-14 08:42:00,
2013-06-14 04:47:00,48.0,48.0,29.59,WSW,247,3.0,3.0,100,0.00,,,0.00,TxWx,2013-06-14 08:47:00,
2013-06-14 04:52:00,48.0,48.0,29.60,WSW,247,1.0,1.0,100,0.00,,,0.00,TxWx,2013-06-14 08:52:00,
2013-06-14 04:58:00,48.0,48.0,29.60,SSW,202,1.0,1.0,100,0.00,,,0.00,TxWx,2013-06-14 08:58:00,
2013-06-14 05:03:00,48.0,48.0,29.60,South,180,0.0,0.0,100,0.00,,,0.00,TxWx,2013-06-14 09:03:00,
2013-06-14 05:08:00,47.0,47.0,29.60,SW,225,2.0,3.0,100,0.00,,,0.00,TxWx,2013-06-14 09:08:00,
2013-06-14 05:13:00,48.0,48.0,29.60,West,270,3.0,3.0,100,0.00,,,0.00,TxWx,2013-06-14 09:13:00,
2013-06-14 05:18:00,48.0,48.0,29.60,WNW,292,3.0,3.0,100,0.00,,,0.00,TxWx,2013-06-14 09:18:00,
2013-06-14 05:23:00,48.0,48.0,29.60,SW,225,1.0,2.0,100,0.00,,,0.00,TxWx,2013-06-14 09:23:00,
2013-06-14 05:28:00,48.0,48.0,29.60,West,270,3.0,3.0,100,0.00,,,0.00,TxWx,2013-06-14 09:28:00,
2013-06-14 05:33:00,48.0,48.0,29.60,SW,225,1.0,1.0,100,0.00,,,0.00,TxWx,2013-06-14 09:33:00,
2013-06-14 05:37:00,69.0,50.0,29.64,WNW,292,6.0,6.0,51,0.00,,,0.00,TxWx,2013-06-14 09:37:00,
2013-06-14 05:38:00,48.0,48.0,29.60,ESE,112,1.0,1.0,100,0.00,,,0.00,TxWx,2013-06-14 09:38:00,
2013-06-14 05:39:00,69.0,50.0,29.64,NNE,22,6.0,6.0,50,0.00,,,0.00,TxWx,2013-06-14 09:39:00,
2013-06-14 05:40:00,69.0,50.0,29.64,NNE,22,4.0,8.0,51,0.00,,,0.00,TxWx,2013-06-14 09:40:00,
2013-06-14 05:41:00,69.0,50.0,29.64,North,0,5.0,5.0,51,0.00,,,0.00,TxWx,2013-06-14 09:41:00,
2013-06-14 05:43:00,47.0,47.0,29.60,WSW,247,1.0,1.0,100,0.00,,,0.00,TxWx,2013-06-14 09:43:00,
2013-06-14 05:48:00,47.0,47.0,29.60,WSW,247,1.0,1.0,100,0.00,,,0.00,TxWx,2013-06-14 09:48:00,
2013-06-14 05:54:00,47.0,47.0,29.60,South,180,0.0,1.0,100,0.00,,,0.00,TxWx,2013-06-14 09:54:00,
2013-06-14 05:59:00,48.0,48.0,29.60,WSW,247,2.0,3.0,100,0.00,,,0.00,TxWx,2013-06-14 09:59:00,
2013-06-14 06:04:00,49.0,49.0,29.60,WSW,247,3.0,3.0,100,0.00,,,0.00,TxWx,2013-06-14 10:04:00,
2013-06-14 06:09:00,48.0,48.0,29.60,WSW,247,3.0,3.0,100,0.00,,,0.00,TxWx,2013-06-14 10:09:00,
2013-06-14 06:14:00,49.0,49.0,29.60,SSW,202,3.0,3.0,100,0.00,,,0.00,TxWx,2013-06-14 10:14:00,
2013-06-14 06:19:00,49.0,49.0,29.60,SSW,202,1.0,2.0,100,0.00,,,0.00,TxWx,2013-06-14 10:19:00,
2013-06-14 06:24:00,49.0,49.0,29.60,WNW,292,2.0,3.0,100,0.00,,,0.00,TxWx,2013-06-14 10:24:00,
2013-06-14 06:29:00,49.0,49.0,29.60,SSW,202,2.0,3.0,100,0.00,,,0.00,TxWx,2013-06-14 10:29:00,
2013-06-14 06:34:00,50.0,50.0,29.61,WNW,292,3.0,3.0,100,0.00,,,0.00,TxWx,2013-06-14 10:34:00,
2013-06-14 06:39:00,50.0,50.0,29.60,SSW,202,2.0,2.0,100,0.00,,,0.00,TxWx,2013-06-14 10:39:00,
2013-06-14 06:44:00,50.0,50.0,29.61,SW,225,3.0,3.0,100,0.00,,,0.00,TxWx,2013-06-14 10:44:00,
2013-06-14 06:50:00,50.0,50.0,29.61,SW,225,1.0,3.0,100,0.00,,,0.00,TxWx,2013-06-14 10:50:00,
2013-06-14 06:55:00,50.0,50.0,29.60,SSW,202,2.0,3.0,100,0.00,,,0.00,TxWx,2013-06-14 10:55:00,
2013-06-14 07:00:00,50.0,50.0,29.61,WSW,247,3.0,3.0,100,0.00,,,0.00,TxWx,2013-06-14 11:00:00,
2013-06-14 07:05:00,51.0,51.0,29.61,SSW,202,2.0,2.0,100,0.00,,,0.00,TxWx,2013-06-14 11:05:00,
2013-06-14 07:10:00,51.0,51.0,29.61,West,270,3.0,5.0,100,0.00,,,0.00,TxWx,2013-06-14 11:10:00,
2013-06-14 07:15:00,51.0,51.0,29.61,West,270,3.0,5.0,100,0.00,,,0.00,TxWx,2013-06-14 11:15:00,
2013-06-14 07:20:00,51.0,51.0,29.61,SW,225,3.0,4.0,100,0.00,,,0.00,TxWx,2013-06-14 11:20:00,
2013-06-14 07:25:00,51.0,51.0,29.61,WNW,292,4.0,5.0,100,0.00,,,0.00,TxWx,2013-06-14 11:25:00,
2013-06-14 07:30:00,52.0,52.0,29.61,SW,225,4.0,5.0,100,0.00,,,0.00,TxWx,2013-06-14 11:30:00,
2013-06-14 07:35:00,52.0,52.0,29.61,SSW,202,2.0,3.0,100,0.00,,,0.00,TxWx,2013-06-14 11:35:00,
2013-06-14 07:41:00,52.0,52.0,29.61,SW,225,3.0,5.0,100,0.00,,,0.00,TxWx,2013-06-14 11:41:00,
2013-06-14 07:46:00,52.0,52.0,29.61,WSW,247,5.0,7.0,100,0.00,,,0.00,TxWx,2013-06-14 11:46:00,
2013-06-14 07:51:00,53.0,53.0,29.61,West,270,5.0,5.0,100,0.00,,,0.00,TxWx,2013-06-14 11:51:00,
2013-06-14 07:56:00,53.0,53.0,29.61,NW,315,5.0,5.0,100,0.00,,,0.00,TxWx,2013-06-14 11:56:00,
2013-06-14 08:01:00,53.0,53.0,29.61,WSW,247,5.0,6.0,100,0.00,,,0.00,TxWx,2013-06-14 12:01:00,
2013-06-14 08:06:00,53.0,53.0,29.62,West,270,3.0,3.0,100,0.00,,,0.00,TxWx,2013-06-14 12:06:00,
2013-06-14 08:11:00,54.0,54.0,29.62,NNW,337,6.0,6.0,100,0.00,,,0.00,TxWx,2013-06-14 12:11:00,
2013-06-14 08:16:00,54.0,54.0,29.62,WSW,247,7.0,8.0,100,0.00,,,0.00,TxWx,2013-06-14 12:16:00,
2013-06-14 08:21:00,54.0,54.0,29.62,WSW,247,5.0,5.0,100,0.00,,,0.00,TxWx,2013-06-14 12:21:00,
2013-06-14 08:26:00,54.0,54.0,29.62,WSW,247,6.0,8.0,100,0.00,,,0.00,TxWx,2013-06-14 12:26:00,
2013-06-14 08:32:00,55.0,55.0,29.62,SW,225,3.0,5.0,99,0.00,,,0.00,TxWx,2013-06-14 12:32:00,
2013-06-14 08:37:00,55.0,54.0,29.62,WNW,292,4.0,4.0,98,0.00,,,0.00,TxWx,2013-06-14 12:37:00,
2013-06-14 08:42:00,55.0,54.0,29.62,WSW,247,4.0,4.0,97,0.00,,,0.00,TxWx,2013-06-14 12:42:00,
2013-06-14 08:47:00,56.0,55.0,29.62,SW,225,5.0,7.0,97,0.00,,,0.00,TxWx,2013-06-14 12:47:00,
2013-06-14 08:52:00,56.0,55.0,29.62,WNW,292,7.0,8.0,96,0.00,,,0.00,TxWx,2013-06-14 12:52:00,
2013-06-14 08:57:00,56.0,55.0,29.62,SSW,202,4.0,9.0,95,0.00,,,0.00,TxWx,2013-06-14 12:57:00,
2013-06-14 09:02:00,56.0,54.0,29.62,SW,225,4.0,6.0,94,0.00,,,0.00,TxWx,2013-06-14 13:02:00,
2013-06-14 09:07:00,57.0,55.0,29.62,WSW,247,4.0,7.0,94,0.00,,,0.00,TxWx,2013-06-14 13:07:00,
2013-06-14 09:12:00,57.0,55.0,29.62,West,270,5.0,8.0,93,0.00,,,0.00,TxWx,2013-06-14 13:12:00,
2013-06-14 09:17:00,58.0,56.0,29.62,NW,315,6.0,7.0,93,0.00,,,0.00,TxWx,2013-06-14 13:17:00,
2013-06-14 09:22:00,58.0,55.0,29.62,WNW,292,5.0,8.0,91,0.00,,,0.00,TxWx,2013-06-14 13:22:00,
2013-06-14 09:28:00,58.0,55.0,29.62,WNW,292,10.0,10.0,91,0.00,,,0.00,TxWx,2013-06-14 13:28:00,
2013-06-14 09:33:00,58.0,55.0,29.62,WSW,247,6.0,6.0,91,0.00,,,0.00,TxWx,2013-06-14 13:33:00,
2013-06-14 09:38:00,59.0,56.0,29.62,SW,225,6.0,10.0,91,0.00,,,0.00,TxWx,2013-06-14 13:38:00,
2013-06-14 09:43:00,59.0,56.0,29.62,WSW,247,6.0,7.0,90,0.00,,,0.00,TxWx,2013-06-14 13:43:00,
2013-06-14 09:48:00,60.0,57.0,29.62,WSW,247,5.0,6.0,89,0.00,,,0.00,TxWx,2013-06-14 13:48:00,
2013-06-14 09:53:00,60.0,56.0,29.62,West,270,3.0,6.0,88,0.00,,,0.00,TxWx,2013-06-14 13:53:00,
2013-06-14 09:58:00,60.0,56.0,29.62,WSW,247,5.0,5.0,87,0.00,,,0.00,TxWx,2013-06-14 13:58:00,
2013-06-14 10:03:00,61.0,57.0,29.62,SW,225,5.0,5.0,87,0.00,,,0.00,TxWx,2013-06-14 14:03:00,
2013-06-14 10:08:00,61.0,57.0,29.62,West,270,3.0,5.0,86,0.00,,,0.00,TxWx,2013-06-14 14:08:00,
2013-06-14 10:13:00,61.0,56.0,29.62,WSW,247,6.0,6.0,85,0.00,,,0.00,TxWx,2013-06-14 14:13:00,
2013-06-14 10:18:00,62.0,57.0,29.62,WNW,292,4.0,5.0,83,0.00,,,0.00,TxWx,2013-06-14 14:18:00,
2013-06-14 10:24:00,63.0,57.0,29.62,WNW,292,5.0,6.0,81,0.00,,,0.00,TxWx,2013-06-14 14:24:00,
2013-06-14 10:29:00,63.0,56.0,29.62,West,270,6.0,6.0,79,0.00,,,0.00,TxWx,2013-06-14 14:29:00,
2013-06-14 10:34:00,64.0,57.0,29.62,WNW,292,5.0,6.0,78,0.00,,,0.00,TxWx,2013-06-14 14:34:00,
2013-06-14 10:39:00,64.0,56.0,29.63,NW,315,5.0,5.0,77,0.00,,,0.00,TxWx,2013-06-14 14:39:00,
2013-06-14 10:44:00,63.0,55.0,29.63,West,270,9.0,11.0,76,0.00,,,0.00,TxWx,2013-06-14 14:44:00,
2013-06-14 10:49:00,64.0,56.0,29.63,West,270,5.0,8.0,75,0.00,,,0.00,TxWx,2013-06-14 14:49:00,
2013-06-14 10:54:00,64.0,56.0,29.63,WNW,292,5.0,10.0,75,0.00,,,0.00,TxWx,2013-06-14 14:54:00,
2013-06-14 10:59:00,64.0,55.0,29.63,WNW,292,5.0,5.0,74,0.00,,,0.00,TxWx,2013-06-14 14:59:00,
2013-06-14 11:04:00,64.0,56.0,29.63,NNW,337,8.0,8.0,74,0.00,,,0.00,TxWx,2013-06-14 15:04:00,
2013-06-14 11:09:00,64.0,55.0,29.63,NNW,337,7.0,8.0,74,0.00,,,0.00,TxWx,2013-06-14 15:09:00,
2013-06-14 11:15:00,65.0,55.0,29.63,WSW,247,2.0,4.0,70,0.00,,,0.00,TxWx,2013-06-14 15:15:00,
2013-06-14 11:20:00,66.0,54.0,29.63,WNW,292,7.0,9.0,67,0.00,,,0.00,TxWx,2013-06-14 15:20:00,
2013-06-14 11:25:00,66.0,54.0,29.63,NNE,22,6.0,6.0,65,0.00,,,0.00,TxWx,2013-06-14 15:25:00,
2013-06-14 11:30:00,67.0,54.0,29.63,NW,315,3.0,3.0,64,0.00,,,0.00,TxWx,2013-06-14 15:30:00,
2013-06-14 11:35:00,67.0,54.0,29.63,NNW,337,5.0,6.0,62,0.00,,,0.00,TxWx,2013-06-14 15:35:00,
2013-06-14 11:40:00,66.0,53.0,29.63,WNW,292,5.0,6.0,64,0.00,,,0.00,TxWx,2013-06-14 15:40:00,
2013-06-14 11:45:00,66.0,53.0,29.63,NW,315,5.0,5.0,64,0.00,,,0.00,TxWx,2013-06-14 15:45:00,
2013-06-14 11:50:00,65.0,52.0,29.63,WNW,292,7.0,8.0,64,0.00,,,0.00,TxWx,2013-06-14 15:50:00,
2013-06-14 11:55:00,66.0,53.0,29.63,North,0,6.0,6.0,62,0.00,,,0.00,TxWx,2013-06-14 15:55:00,
2013-06-14 12:00:00,66.0,52.0,29.63,North,0,8.0,10.0,61,0.00,,,0.00,TxWx,2013-06-14 16:00:00,
2013-06-14 12:05:00,66.0,53.0,29.63,West,270,8.0,8.0,64,0.00,,,0.00,TxWx,2013-06-14 16:05:00,
2013-06-14 12:11:00,66.0,53.0,29.63,North,0,11.0,11.0,63,0.00,,,0.00,TxWx,2013-06-14 16:11:00,
2013-06-14 12:16:00,66.0,54.0,29.63,NW,315,6.0,6.0,65,0.00,,,0.00,TxWx,2013-06-14 16:16:00,
2013-06-14 12:21:00,66.0,54.0,29.63,WNW,292,7.0,7.0,66,0.00,,,0.00,TxWx,2013-06-14 16:21:00,
2013-06-14 12:26:00,66.0,54.0,29.63,North,0,5.0,6.0,67,0.00,,,0.00,TxWx,2013-06-14 16:26:00,
2013-06-14 12:31:00,67.0,55.0,29.63,WNW,292,5.0,5.0,66,0.00,,,0.00,TxWx,2013-06-14 16:31:00,
2013-06-14 12:36:00,66.0,53.0,29.63,NW,315,13.0,13.0,64,0.00,,,0.00,TxWx,2013-06-14 16:36:00,
2013-06-14 12:41:00,66.0,54.0,29.63,NNW,337,12.0,13.0,65,0.00,,,0.00,TxWx,2013-06-14 16:41:00,
2013-06-14 12:46:00,67.0,55.0,29.63,NNW,337,3.0,4.0,65,0.00,,,0.00,TxWx,2013-06-14 16:46:00,
2013-06-14 12:51:00,67.0,55.0,29.63,NW,315,3.0,8.0,65,0.00,,,0.00,TxWx,2013-06-14 16:51:00,
2013-06-14 12:56:00,67.0,53.0,29.64,WSW,247,8.0,10.0,62,0.00,,,0.00,TxWx,2013-06-14 16:56:00,
2013-06-14 13:02:00,66.0,53.0,29.64,NNW,337,7.0,7.0,64,0.00,,,0.00,TxWx,2013-06-14 17:02:00,
2013-06-14 13:07:00,65.0,53.0,29.64,WNW,292,10.0,10.0,65,0.00,,,0.00,TxWx,2013-06-14 17:07:00,
2013-06-14 13:12:00,66.0,54.0,29.63,NNW,337,6.0,6.0,66,0.00,,,0.00,TxWx,2013-06-14 17:12:00,
2013-06-14 13:17:00,67.0,55.0,29.63,SSW,202,5.0,6.0,65,0.00,,,0.00,TxWx,2013-06-14 17:17:00,
2013-06-14 13:22:00,68.0,54.0,29.63,NNW,337,8.0,10.0,61,0.00,,,0.00,TxWx,2013-06-14 17:22:00,
2013-06-14 13:27:00,67.0,52.0,29.64,NNW,337,8.0,13.0,59,0.00,,,0.00,TxWx,2013-06-14 17:27:00,
2013-06-14 13:32:00,66.0,52.0,29.64,NNW,337,8.0,12.0,61,0.00,,,0.00,TxWx,2013-06-14 17:32:00,
2013-06-14 13:37:00,66.0,53.0,29.64,NW,315,5.0,6.0,62,0.00,,,0.00,TxWx,2013-06-14 17:37:00,
2013-06-14 13:42:00,68.0,55.0,29.64,NNE,22,4.0,5.0,63,0.00,,,0.00,TxWx,2013-06-14 17:42:00,
2013-06-14 13:47:00,68.0,53.0,29.64,NW,315,7.0,13.0,58,0.00,,,0.00,TxWx,2013-06-14 17:47:00,
2013-06-14 13:52:00,67.0,51.0,29.64,WNW,292,6.0,8.0,57,0.00,,,0.00,TxWx,2013-06-14 17:52:00,
2013-06-14 13:57:00,68.0,52.0,29.64,NNW,337,5.0,5.0,56,0.00,,,0.00,TxWx,2013-06-14 17:57:00,
2013-06-14 14:03:00,68.0,51.0,29.64,NNW,337,10.0,10.0,56,0.00,,,0.00,TxWx,2013-06-14 18:03:00,
2013-06-14 14:08:00,68.0,49.0,29.64,NW,315,3.0,3.0,52,0.00,,,0.00,TxWx,2013-06-14 18:08:00,
2013-06-14 14:13:00,68.0,49.0,29.64,WNW,292,3.0,4.0,50,0.00,,,0.00,TxWx,2013-06-14 18:13:00,
2013-06-14 14:18:00,68.0,49.0,29.64,NW,315,6.0,6.0,51,0.00,,,0.00,TxWx,2013-06-14 18:18:00,
2013-06-14 14:23:00,68.0,49.0,29.64,NW,315,7.0,7.0,52,0.00,,,0.00,TxWx,2013-06-14 18:23:00,
2013-06-14 14:28:00,68.0,49.0,29.64,NW,315,6.0,6.0,51,0.00,,,0.00,TxWx,2013-06-14 18:28:00,
2013-06-14 14:33:00,68.0,49.0,29.64,NNW,337,4.0,6.0,50,0.00,,,0.00,TxWx,2013-06-14 18:33:00,
2013-06-14 14:42:00,69.0,50.0,29.64,NNW,337,8.0,8.0,51,0.00,,,0.00,TxWx,2013-06-14 18:42:00,
2013-06-14 14:47:00,70.0,50.0,29.65,NNE,22,13.0,13.0,49,0.00,,,0.00,TxWx,2013-06-14 18:47:00,
2013-06-14 14:52:00,69.0,48.0,29.65,NNW,337,6.0,7.0,47,0.00,,,0.00,TxWx,2013-06-14 18:52:00,
2013-06-14 14:57:00,68.0,47.0,29.65,NW,315,10.0,13.0,48,0.00,,,0.00,TxWx,2013-06-14 18:57:00,
2013-06-14 15:00:00,50.0,45.0,29.75,SSW,202,2.0,2.0,83,0.00,,,0.00,TxWx,2013-06-14 19:00:00,
2013-06-14 15:01:00,50.0,45.0,29.75,SW,225,2.0,2.0,83,0.00,,,0.00,TxWx,2013-06-14 19:01:00,
2013-06-14 15:02:00,68.0,48.0,29.65,North,0,6.0,8.0,49,0.00,,,0.00,TxWx,2013-06-14 19:02:00,
2013-06-14 15:03:00,50.0,45.0,29.75,SW,225,1.0,1.0,83,0.00,,,0.00,TxWx,2013-06-14 19:03:00,
2013-06-14 15:04:00,50.0,45.0,29.75,South,180,0.0,0.0,83,0.00,,,0.00,TxWx,2013-06-14 19:04:00,
2013-06-14 15:07:00,68.0,48.0,29.65,NE,45,5.0,10.0,48,0.00,,,0.00,TxWx,2013-06-14 19:07:00,
2013-06-14 15:12:00,68.0,48.0,29.65,NNE,22,8.0,8.0,48,0.00,,,0.00,TxWx,2013-06-14 19:12:00,
2013-06-14 15:17:00,67.0,47.0,29.65,North,0,11.0,12.0,49,0.00,,,0.00,TxWx,2013-06-14 19:17:00,
2013-06-14 15:22:00,67.0,47.0,29.65,NE,45,8.0,9.0,50,0.00,,,0.00,TxWx,2013-06-14 19:22:00,
2013-06-14 15:27:00,68.0,49.0,29.65,North,0,3.0,5.0,51,0.00,,,0.00,TxWx,2013-06-14 19:27:00,
2013-06-14 15:32:00,68.0,49.0,29.65,North,0,6.0,7.0,50,0.00,,,0.00,TxWx,2013-06-14 19:32:00,
2013-06-14 15:38:00,68.0,49.0,29.65,ENE,67,4.0,4.0,51,0.00,,,0.00,TxWx,2013-06-14 19:38:00,
2013-06-14 15:43:00,68.0,49.0,29.65,North,0,4.0,6.0,51,0.00,,,0.00,TxWx,2013-06-14 19:43:00,
2013-06-14 15:48:00,69.0,49.0,29.65,NW,315,8.0,9.0,49,0.00,,,0.00,TxWx,2013-06-14 19:48:00,
2013-06-14 15:53:00,70.0,49.0,29.65,NW,315,8.0,9.0,47,0.00,,,0.00,TxWx,2013-06-14 19:53:00,
2013-06-14 15:58:00,70.0,49.0,29.65,WNW,292,8.0,8.0,48,0.00,,,0.00,TxWx,2013-06-14 19:58:00,
2013-06-14 16:03:00,70.0,49.0,29.65,WNW,292,4.0,5.0,48,0.00,,,0.00,TxWx,2013-06-14 20:03:00,
2013-06-14 16:08:00,70.0,50.0,29.65,WNW,292,5.0,7.0,49,0.00,,,0.00,TxWx,2013-06-14 20:08:00,
2013-06-14 16:13:00,69.0,49.0,29.65,SSW,202,6.0,11.0,49,0.00,,,0.00,TxWx,2013-06-14 20:13:00,
2013-06-14 16:18:00,69.0,49.0,29.65,West,270,13.0,13.0,50,0.00,,,0.00,TxWx,2013-06-14 20:18:00,
2013-06-14 16:23:00,68.0,49.0,29.65,WNW,292,10.0,10.0,50,0.00,,,0.00,TxWx,2013-06-14 20:23:00,
2013-06-14 16:29:00,68.0,49.0,29.65,North,0,7.0,8.0,51,0.00,,,0.00,TxWx,2013-06-14 20:29:00,
2013-06-14 16:34:00,68.0,50.0,29.65,WSW,247,5.0,5.0,53,0.00,,,0.00,TxWx,2013-06-14 20:34:00,
2013-06-14 16:39:00,68.0,50.0,29.65,NW,315,7.0,8.0,53,0.00,,,0.00,TxWx,2013-06-14 20:39:00,
2013-06-14 16:44:00,68.0,50.0,29.65,North,0,5.0,6.0,53,0.00,,,0.00,TxWx,2013-06-14 20:44:00,
2013-06-14 16:49:00,67.0,50.0,29.65,North,0,4.0,8.0,54,0.00,,,0.00,TxWx,2013-06-14 20:49:00,
2013-06-14 16:54:00,67.0,50.0,29.65,West,270,3.0,4.0,55,0.00,,,0.00,TxWx,2013-06-14 20:54:00,
2013-06-14 16:59:00,67.0,51.0,29.66,West,270,7.0,8.0,56,0.00,,,0.00,TxWx,2013-06-14 20:59:00,
2013-06-14 17:02:00,45.0,43.0,29.76,SSW,202,1.0,1.0,92,0.00,,,0.00,TxWx,2013-06-14 21:02:00,
2013-06-14 17:03:00,45.0,43.0,29.76,SSW,202,1.0,1.0,92,0.00,,,0.00,TxWx,2013-06-14 21:03:00,
2013-06-14 17:04:00,66.0,51.0,29.66,West,270,8.0,11.0,58,0.00,,,0.00,TxWx,2013-06-14 21:04:00,
2013-06-14 17:05:00,45.0,43.0,29.76,SSW,202,1.0,1.0,92,0.00,,,0.00,TxWx,2013-06-14 21:05:00,
2013-06-14 17:06:00,45.0,43.0,29.76,SW,225,1.0,1.0,92,0.00,,,0.00,TxWx,2013-06-14 21:06:00,
2013-06-14 17:09:00,66.0,52.0,29.66,NW,315,10.0,10.0,61,0.00,,,0.00,TxWx,2013-06-14 21:09:00,
2013-06-14 17:14:00,64.0,52.0,29.66,NNW,337,5.0,5.0,65,0.00,,,0.00,TxWx,2013-06-14 21:14:00,
2013-06-14 17:19:00,64.0,53.0,29.66,NW,315,3.0,3.0,67,0.00,,,0.00,TxWx,2013-06-14 21:19:00,
2013-06-14 17:25:00,64.0,53.0,29.66,West,270,1.0,1.0,69,0.00,,,0.00,TxWx,2013-06-14 21:25:00,
2013-06-14 17:30:00,64.0,53.0,29.66,SW,225,1.0,2.0,69,0.00,,,0.00,TxWx,2013-06-14 21:30:00,
2013-06-14 17:35:00,64.0,54.0,29.66,SW,225,3.0,4.0,69,0.00,,,0.00,TxWx,2013-06-14 21:35:00,
2013-06-14 17:40:00,64.0,53.0,29.66,West,270,3.0,4.0,68,0.00,,,0.00,TxWx,2013-06-14 21:40:00,
2013-06-14 17:45:00,65.0,53.0,29.66,South,180,2.0,3.0,66,0.00,,,0.00,TxWx,2013-06-14 21:45:00,
2013-06-14 17:50:00,66.0,53.0,29.66,West,270,6.0,8.0,63,0.00,,,0.00,TxWx,2013-06-14 21:50:00,
2013-06-14 17:55:00,67.0,53.0,29.66,NNW,337,8.0,10.0,61,0.00,,,0.00,TxWx,2013-06-14 21:55:00,
2013-06-14 18:00:00,68.0,54.0,29.66,West,270,3.0,4.0,61,0.00,,,0.00,TxWx,2013-06-14 22:00:00,
2013-06-14 18:05:00,68.0,53.0,29.66,West,270,4.0,6.0,60,0.00,,,0.00,TxWx,2013-06-14 22:05:00,
2013-06-14 18:10:00,68.0,53.0,29.67,NW,315,6.0,6.0,59,0.00,,,0.00,TxWx,2013-06-14 22:10:00,
2013-06-14 18:16:00,67.0,52.0,29.66,NNE,22,7.0,9.0,58,0.00,,,0.00,TxWx,2013-06-14 22:16:00,
2013-06-14 18:21:00,67.0,52.0,29.67,NNE,22,6.0,12.0,59,0.00,,,0.00,TxWx,2013-06-14 22:21:00,
2013-06-14 18:26:00,67.0,52.0,29.68,NW,315,2.0,4.0,60,0.00,,,0.00,TxWx,2013-06-14 22:26:00,
2013-06-14 18:31:00,67.0,53.0,29.68,NNW,337,10.0,11.0,61,0.00,,,0.00,TxWx,2013-06-14 22:31:00,
2013-06-14 18:36:00,66.0,52.0,29.69,North,0,17.0,17.0,61,0.00,,,0.00,TxWx,2013-06-14 22:36:00,
2013-06-14 18:41:00,65.0,52.0,29.69,NNE,22,6.0,9.0,63,0.00,,,0.00,TxWx,2013-06-14 22:41:00,
2013-06-14 18:46:00,63.0,51.0,29.69,East,90,10.0,13.0,65,0.00,,,0.00,TxWx,2013-06-14 22:46:00,
2013-06-14 18:51:00,62.0,51.0,29.69,NNE,22,6.0,7.0,67,0.00,,,0.00,TxWx,2013-06-14 22:51:00,
2013-06-14 18:55:00,42.0,40.0,29.79,South,180,0.0,0.0,94,0.00,,,0.00,TxWx,2013-06-14 22:55:00,
2013-06-14 18:56:00,61.0,51.0,29.69,NNW,337,2.0,2.0,70,0.00,,,0.00,TxWx,2013-06-14 22:56:00,
2013-06-14 18:57:00,42.0,40.0,29.79,SSW,202,0.0,0.0,94,0.00,,,0.00,TxWx,2013-06-14 22:57:00,
2013-06-14 18:58:00,42.0,40.0,29.79,SSW,202,0.0,0.0,94,0.00,,,0.00,TxWx,2013-06-14 22:58:00,
2013-06-14 18:59:00,42.0,40.0,29.79,SSW,202,0.0,0.0,94,0.00,,,0.00,TxWx,2013-06-14 22:59:00,
2013-06-14 19:01:00,60.0,51.0,29.69,NE,45,2.0,3.0,73,0.00,,,0.00,TxWx,2013-06-14 23:01:00,
2013-06-14 19:06:00,60.0,52.0,29.69,SSE,157,2.0,3.0,75,0.00,,,0.00,TxWx,2013-06-14 23:06:00,
2013-06-14 19:12:00,60.0,53.0,29.69,SSW,202,0.0,0.0,77,0.00,,,0.00,TxWx,2013-06-14 23:12:00,
2013-06-14 19:17:00,60.0,53.0,29.69,ENE,67,2.0,2.0,77,0.00,,,0.00,TxWx,2013-06-14 23:17:00,
2013-06-14 19:22:00,61.0,54.0,29.69,ESE,112,2.0,2.0,77,0.00,,,0.00,TxWx,2013-06-14 23:22:00,
2013-06-14 19:27:00,60.0,53.0,29.70,SSE,157,2.0,3.0,78,0.00,,,0.00,TxWx,2013-06-14 23:27:00,
2013-06-14 19:32:00,60.0,53.0,29.69,SE,135,3.0,3.0,77,0.00,,,0.00,TxWx,2013-06-14 23:32:00,
2013-06-14 19:37:00,60.0,53.0,29.69,NNE,22,2.0,2.0,77,0.00,,,0.00,TxWx,2013-06-14 23:37:00,
2013-06-14 19:42:00,59.0,52.0,29.70,North,0,3.0,5.0,78,0.00,,,0.00,TxWx,2013-06-14 23:42:00,
2013-06-14 19:47:00,59.0,52.0,29.70,NNE,22,3.0,3.0,79,0.00,,,0.00,TxWx,2013-06-14 23:47:00,
2013-06-14 19:52:00,58.0,52.0,29.70,ESE,112,4.0,4.0,80,0.00,,,0.00,TxWx,2013-06-14 23:52:00,
2013-06-14 19:57:00,59.0,53.0,29.70,SSE,157,1.0,3.0,81,0.00,,,0.00,TxWx,2013-06-14 23:57:00,
2013-06-14 20:03:00,61.0,52.0,29.70,NW,315,7.0,10.0,73,0.00,,,0.00,TxWx,2013-06-15 00:03:00,
2013-06-14 20:08:00,63.0,50.0,29.70,NW,315,8.0,8.0,64,0.00,,,0.00,TxWx,2013-06-15 00:08:00,
2013-06-14 20:13:00,63.0,48.0,29.70,WNW,292,12.0,12.0,59,0.00,,,0.00,TxWx,2013-06-15 00:13:00,
2013-06-14 20:18:00,63.0,47.0,29.70,West,270,11.0,11.0,57,0.00,,,0.00,TxWx,2013-06-15 00:18:00,
2013-06-14 20:23:00,63.0,47.0,29.70,WNW,292,6.0,6.0,56,0.00,,,0.00,TxWx,2013-06-15 00:23:00,
2013-06-14 20:28:00,63.0,47.0,29.70,NW,315,11.0,11.0,55,0.00,,,0.00,TxWx,2013-06-15 00:28:00,
2013-06-14 20:33:00,63.0,47.0,29.70,WNW,292,6.0,6.0,55,0.00,,,0.00,TxWx,2013-06-15 00:33:00,
2013-06-14 20:38:00,63.0,47.0,29.70,West,270,7.0,7.0,55,0.00,,,0.00,TxWx,2013-06-15 00:38:00,
2013-06-14 20:43:00,62.0,46.0,29.70,West,270,5.0,5.0,55,0.00,,,0.00,TxWx,2013-06-15 00:43:00,
2013-06-14 20:48:00,62.0,46.0,29.70,West,270,5.0,6.0,55,0.00,,,0.00,TxWx,2013-06-15 00:48:00,
2013-06-14 20:53:00,62.0,45.0,29.70,West,270,5.0,6.0,55,0.00,,,0.00,TxWx,2013-06-15 00:53:00,
2013-06-14 20:59:00,62.0,45.0,29.70,West,270,10.0,13.0,54,0.00,,,0.00,TxWx,2013-06-15 00:59:00,
2013-06-14 21:04:00,62.0,45.0,29.70,NW,315,8.0,9.0,54,0.00,,,0.00,TxWx,2013-06-15 01:04:00,
2013-06-14 21:09:00,62.0,45.0,29.70,North,0,4.0,5.0,54,0.00,,,0.00,TxWx,2013-06-15 01:09:00,
2013-06-14 21:14:00,61.0,45.0,29.71,West,270,4.0,5.0,55,0.00,,,0.00,TxWx,2013-06-15 01:14:00,
2013-06-14 21:19:00,61.0,44.0,29.71,WNW,292,7.0,11.0,55,0.00,,,0.00,TxWx,2013-06-15 01:19:00,
2013-06-14 21:24:00,61.0,45.0,29.71,WNW,292,3.0,4.0,55,0.00,,,0.00,TxWx,2013-06-15 01:24:00,
2013-06-14 21:29:00,61.0,45.0,29.71,WNW,292,5.0,5.0,56,0.00,,,0.00,TxWx,2013-06-15 01:29:00,
2013-06-14 21:34:00,60.0,45.0,29.72,WNW,292,3.0,6.0,58,0.00,,,0.00,TxWx,2013-06-15 01:34:00,
2013-06-14 21:39:00,60.0,45.0,29.72,NNE,22,3.0,4.0,58,0.00,,,0.00,TxWx,2013-06-15 01:39:00,
2013-06-14 21:44:00,59.0,44.0,29.72,WNW,292,3.0,3.0,59,0.00,,,0.00,TxWx,2013-06-15 01:44:00,
2013-06-14 21:49:00,59.0,44.0,29.72,NW,315,5.0,5.0,59,0.00,,,0.00,TxWx,2013-06-15 01:49:00,
2013-06-14 21:55:00,59.0,44.0,29.73,NW,315,3.0,3.0,58,0.00,,,0.00,TxWx,2013-06-15 01:55:00,
2013-06-14 22:00:00,59.0,44.0,29.73,WNW,292,5.0,9.0,58,0.00,,,0.00,TxWx,2013-06-15 02:00:00,
2013-06-14 22:05:00,59.0,45.0,29.73,NW,315,3.0,3.0,59,0.00,,,0.00,TxWx,2013-06-15 02:05:00,
2013-06-14 22:10:00,59.0,44.0,29.73,WNW,292,4.0,5.0,58,0.00,,,0.00,TxWx,2013-06-15 02:10:00,
2013-06-14 22:15:00,59.0,44.0,29.73,West,270,3.0,3.0,59,0.00,,,0.00,TxWx,2013-06-15 02:15:00,
2013-06-14 22:20:00,58.0,44.0,29.73,WNW,292,4.0,5.0,59,0.00,,,0.00,TxWx,2013-06-15 02:20:00,
2013-06-14 22:25:00,58.0,44.0,29.73,WNW,292,2.0,2.0,61,0.00,,,0.00,TxWx,2013-06-15 02:25:00,
2013-06-14 22:30:00,57.0,44.0,29.73,WNW,292,3.0,3.0,62,0.00,,,0.00,TxWx,2013-06-15 02:30:00,
2013-06-14 22:35:00,56.0,44.0,29.73,West,270,2.0,2.0,64,0.00,,,0.00,TxWx,2013-06-15 02:35:00,
2013-06-14 22:40:00,56.0,44.0,29.73,WNW,292,3.0,3.0,65,0.00,,,0.00,TxWx,2013-06-15 02:40:00,
2013-06-14 22:45:00,55.0,44.0,29.74,West,270,5.0,5.0,67,0.00,,,0.00,TxWx,2013-06-15 02:45:00,
2013-06-14 22:51:00,55.0,44.0,29.74,NW,315,3.0,3.0,68,0.00,,,0.00,TxWx,2013-06-15 02:51:00,
2013-06-14 22:56:00,55.0,45.0,29.74,West,270,5.0,5.0,69,0.00,,,0.00,TxWx,2013-06-15 02:56:00,
2013-06-14 23:01:00,55.0,45.0,29.74,SW,225,1.0,3.0,69,0.00,,,0.00,TxWx,2013-06-15 03:01:00,
2013-06-14 23:06:00,54.0,44.0,29.73,West,270,3.0,3.0,70,0.00,,,0.00,TxWx,2013-06-15 03:06:00,
2013-06-14 23:11:00,54.0,45.0,29.73,WSW,247,3.0,3.0,71,0.00,,,0.00,TxWx,2013-06-15 03:11:00,
2013-06-14 23:16:00,53.0,44.0,29.74,SW,225,2.0,2.0,72,0.00,,,0.00,TxWx,2013-06-15 03:16:00,
2013-06-14 23:21:00,52.0,44.0,29.74,SW,225,2.0,3.0,74,0.00,,,0.00,TxWx,2013-06-15 03:21:00,
2013-06-14 23:26:00,52.0,44.0,29.74,WSW,247,3.0,3.0,76,0.00,,,0.00,TxWx,2013-06-15 03:26:00,
2013-06-14 23:31:00,51.0,44.0,29.74,SW,225,3.0,3.0,78,0.00,,,0.00,TxWx,2013-06-15 03:31:00,
2013-06-14 23:36:00,51.0,45.0,29.74,SW,225,2.0,3.0,79,0.00,,,0.00,TxWx,2013-06-15 03:36:00,
2013-06-14 23:41:00,50.0,44.0,29.74,SW,225,4.0,4.0,81,0.00,,,0.00,TxWx,2013-06-15 03:41:00,
2013-06-14 23:47:00,50.0,45.0,29.75,SW,225,1.0,2.0,82,0.00,,,0.00,TxWx,2013-06-15 03:47:00,
2013-06-14 23:52:00,50.0,45.0,29.75,SSW,202,2.0,2.0,83,0.00,,,0.00,TxWx,2013-06-15 03:52:00,
2013-06-14 23:57:00,50.0,45.0,29.75,SSW,202,1.0,1.0,83,0.00,,,0.00,TxWx,2013-06-15 03:57:00,